Detall de PIREP

Printer-friendly versionPDF version

[2014/09/30 07:35:00]
Flight IATA:CT3210
Pilot Number:042
Company ICAO:CAT
Aircraft Type:B463/A
PAX:22
Aircraft Registration:PAX
Departing Airport: LEPA
Destination Airport: LROP
Alternate Airport:LRCK
Online: VATSIM
Route:MORSS UM603 ALG UL5 TOSVI
Flight Level:F330
No Slew and time accel
No pause
Crash detect
Detect pilot in Cockpit between each 30 and 45 minutes
07:35 Zero fuel Weight: 80445 Lbs, Fuel Weight: 22550 Lbs
07:35 VATSIM:LEPA 300630Z VRB01KT 9999 FEW015 20/19 Q1021 NOSIG
07:35 VATSIM:LROP 300630Z 27005KT 240V310 CAVOK 13/12 Q1025 NOSIG
07:52 Parking Brakes off
07:59 Take-off
07:59 Take off Weight: 101717 Lbs
07:59 Wind: 000º @ 001 Knots Heading: 237º
07:59 POS N39º 33´ 10´´ E002º 43´ 22´´
07:59 Gear Up: 162 Knots
07:59 Flaps:2 at 162 Knots
08:00 Flaps:1 at 156 Knots
08:01 Flaps:0 at 196 Knots
08:14 Wind:217º@039 Knots Heading: 062º Ground Speed: 394 Knots Altitude 27178 ft
08:19 TOC
08:19 Fuel Weight: 18165 Lb
08:22 TOD
08:22 Fuel Weight: 17928 Lb
08:22 TOC
08:22 Fuel Weight: 17911 Lb
08:29 Wind:215º@031 Knots Heading: 077º Ground Speed: 433 Knots Altitude 33274 ft
08:44 Wind:223º@022 Knots Heading: 079º Ground Speed: 428 Knots Altitude 33346 ft
08:59 Wind:209º@024 Knots Heading: 070º Ground Speed: 428 Knots Altitude 33379 ft
09:14 Wind:224º@018 Knots Heading: 061º Ground Speed: 426 Knots Altitude 33385 ft
09:29 Wind:275º@017 Knots Heading: 059º Ground Speed: 423 Knots Altitude 33398 ft
09:44 Wind:309º@017 Knots Heading: 055º Ground Speed: 415 Knots Altitude 33415 ft
09:59 Wind:306º@024 Knots Heading: 062º Ground Speed: 420 Knots Altitude 33402 ft
10:14 Wind:314º@025 Knots Heading: 082º Ground Speed: 424 Knots Altitude 33379 ft
10:29 Wind:315º@023 Knots Heading: 088º Ground Speed: 424 Knots Altitude 33359 ft
10:29 TOD
10:29 Fuel Weight: 9765 Lb
10:44 Wind:319º@014 Knots Heading: 100º Ground Speed: 276 Knots Altitude 12568 ft
10:50 Flaps:1 at 208 Knots
10:52 Flaps:2 at 186 Knots
10:57 Gear Down: 174 Knots
10:57 Flaps:3 at 177 Knots
10:58 Flaps:4 at 161 Knots
10:59 Wind:273º@005 Knots Heading: 264º Ground Speed: 154 Knots Altitude 1358 ft
11:00 TouchDown:Rate -295 ft/min Speed: 122 Knots
11:00 VATSIM:LROP 300930Z 24005KT 190V300 CAVOK 21/09 Q1024 NOSIG
11:01 Land
11:01 Wind:242º@005 Knots
11:01 Heading: 261º
11:01 Flight Duration: 03:02
11:01 Landing Weight: 88948 Lbs
11:01 POS N44º 34´ 39´´ E026º 05´ 50´´
11:05 Parking brakes on
11:05 Block to Block Duration: 03:13
11:05 Final Fuel: 8086 Lbls
11:05 Spent Fuel: 14464 Lbls
11:05 Flight Length: 1172 NM
11:05 TOD Land Length: 137 NM

Exportar CSV

Powered by Drupal - Modified by Danger4k